sensor_id;sensor_type;location;lat;lon;timestamp;pressure;altitude;pressure_sealevel;temperature;humidity
29315;BME280;16320;53.954;9.506;2023-04-15T00:00:12;100826.84;;;7.77;100.00
29315;BME280;16320;53.954;9.506;2023-04-15T00:03:16;100819.88;;;7.76;100.00
29315;BME280;16320;53.954;9.506;2023-04-15T00:06:23;100820.72;;;7.78;100.00
29315;BME280;16320;53.954;9.506;2023-04-15T00:09:28;100818.81;;;7.82;100.00
29315;BME280;16320;53.954;9.506;2023-04-15T00:12:32;100812.72;;;7.81;100.00
29315;BME280;16320;53.954;9.506;2023-04-15T00:15:37;100817.81;;;7.84;100.00
29315;BME280;16320;53.954;9.506;2023-04-15T00:18:41;100821.50;;;7.80;100.00
29315;BME280;16320;53.954;9.506;2023-04-15T00:21:45;100827.50;;;7.82;100.00
29315;BME280;16320;53.954;9.506;2023-04-15T00:24:52;100820.50;;;7.83;100.00
29315;BME280;16320;53.954;9.506;2023-04-15T00:27:56;100819.78;;;7.79;100.00
29315;BME280;16320;53.954;9.506;2023-04-15T00:31:01;100817.03;;;7.82;100.00
29315;BME280;16320;53.954;9.506;2023-04-15T00:34:06;100814.44;;;7.82;100.00
29315;BME280;16320;53.954;9.506;2023-04-15T00:37:11;100819.53;;;7.85;100.00
29315;BME280;16320;53.954;9.506;2023-04-15T00:40:17;100801.25;;;7.85;100.00
29315;BME280;16320;53.954;9.506;2023-04-15T00:43:23;100806.53;;;7.84;100.00
29315;BME280;16320;53.954;9.506;2023-04-15T00:46:28;100799.63;;;7.81;100.00
29315;BME280;16320;53.954;9.506;2023-04-15T00:49:34;100797.84;;;7.83;100.00
29315;BME280;16320;53.954;9.506;2023-04-15T00:52:39;100794.22;;;7.86;100.00
29315;BME280;16320;53.954;9.506;2023-04-15T00:55:44;100796.06;;;7.84;100.00
29315;BME280;16320;53.954;9.506;2023-04-15T00:58:50;100800.44;;;7.83;100.00
29315;BME280;16320;53.954;9.506;2023-04-15T01:01:54;100797.03;;;7.81;100.00
29315;BME280;16320;53.954;9.506;2023-04-15T01:04:59;100796.28;;;7.78;100.00
29315;BME280;16320;53.954;9.506;2023-04-15T01:08:04;100797.03;;;7.81;100.00
29315;BME280;16320;53.954;9.506;2023-04-15T01:11:09;100798.00;;;7.79;100.00
29315;BME280;16320;53.954;9.506;2023-04-15T01:14:15;100793.63;;;7.79;100.00
29315;BME280;16320;53.954;9.506;2023-04-15T01:17:19;100792.78;;;7.79;100.00
29315;BME280;16320;53.954;9.506;2023-04-15T01:20:24;100797.97;;;7.80;100.00
29315;BME280;16320;53.954;9.506;2023-04-15T01:23:30;100793.69;;;7.78;100.00
29315;BME280;16320;53.954;9.506;2023-04-15T01:26:36;100800.69;;;7.77;100.00
29315;BME280;16320;53.954;9.506;2023-04-15T01:29:41;100797.16;;;7.78;100.00
29315;BME280;16320;53.954;9.506;2023-04-15T01:32:46;100788.28;;;7.82;100.00
29315;BME280;16320;53.954;9.506;2023-04-15T01:35:50;100796.97;;;7.83;100.00
29315;BME280;16320;53.954;9.506;2023-04-15T01:38:55;100787.56;;;7.79;100.00
29315;BME280;16320;53.954;9.506;2023-04-15T01:42:00;100784.16;;;7.77;100.00
29315;BME280;16320;53.954;9.506;2023-04-15T01:45:05;100798.97;;;7.76;100.00
29315;BME280;16320;53.954;9.506;2023-04-15T01:48:10;100785.91;;;7.76;100.00
29315;BME280;16320;53.954;9.506;2023-04-15T01:51:15;100788.50;;;7.76;100.00
29315;BME280;16320;53.954;9.506;2023-04-15T01:54:20;100792.84;;;7.77;100.00
29315;BME280;16320;53.954;9.506;2023-04-15T01:57:24;100799.78;;;7.78;100.00
29315;BME280;16320;53.954;9.506;2023-04-15T02:00:29;100801.41;;;7.81;100.00
29315;BME280;16320;53.954;9.506;2023-04-15T02:03:36;100797.03;;;7.81;100.00
29315;BME280;16320;53.954;9.506;2023-04-15T02:06:42;100802.25;;;7.81;100.00
29315;BME280;16320;53.954;9.506;2023-04-15T02:09:46;100799.69;;;7.80;100.00
29315;BME280;16320;53.954;9.506;2023-04-15T02:12:51;100798.00;;;7.79;100.00
29315;BME280;16320;53.954;9.506;2023-04-15T02:15:55;100798.13;;;7.76;100.00
29315;BME280;16320;53.954;9.506;2023-04-15T02:19:00;100794.63;;;7.77;100.00
29315;BME280;16320;53.954;9.506;2023-04-15T02:22:05;100787.63;;;7.77;100.00
29315;BME280;16320;53.954;9.506;2023-04-15T02:25:10;100788.63;;;7.73;100.00
29315;BME280;16320;53.954;9.506;2023-04-15T02:28:15;100796.28;;;7.78;100.00
29315;BME280;16320;53.954;9.506;2023-04-15T02:31:19;100790.94;;;7.81;100.00
29315;BME280;16320;53.954;9.506;2023-04-15T02:34:24;100804.94;;;7.80;100.00
29315;BME280;16320;53.954;9.506;2023-04-15T02:37:31;100798.84;;;7.79;100.00
29315;BME280;16320;53.954;9.506;2023-04-15T02:40:35;100791.06;;;7.78;100.00
29315;BME280;16320;53.954;9.506;2023-04-15T02:43:40;100795.56;;;7.74;100.00
29315;BME280;16320;53.954;9.506;2023-04-15T02:46:45;100795.47;;;7.77;100.00
29315;BME280;16320;53.954;9.506;2023-04-15T02:49:55;100790.22;;;7.77;100.00
29315;BME280;16320;53.954;9.506;2023-04-15T02:53:01;100790.09;;;7.80;100.00
29315;BME280;16320;53.954;9.506;2023-04-15T02:56:06;100800.56;;;7.80;100.00
29315;BME280;16320;53.954;9.506;2023-04-15T02:59:12;100801.53;;;7.78;100.00
29315;BME280;16320;53.954;9.506;2023-04-15T03:02:16;100794.66;;;7.75;100.00
29315;BME280;16320;53.954;9.506;2023-04-15T03:05:21;100798.75;;;7.82;100.00
29315;BME280;16320;53.954;9.506;2023-04-15T03:08:28;100798.75;;;7.82;100.00
29315;BME280;16320;53.954;9.506;2023-04-15T03:11:34;100801.34;;;7.82;100.00
29315;BME280;16320;53.954;9.506;2023-04-15T03:14:39;100797.84;;;7.83;100.00
29315;BME280;16320;53.954;9.506;2023-04-15T03:17:44;100803.06;;;7.83;100.00
29315;BME280;16320;53.954;9.506;2023-04-15T03:20:48;100799.47;;;7.86;100.00
29315;BME280;16320;53.954;9.506;2023-04-15T03:23:52;100796.00;;;7.85;100.00
29315;BME280;16320;53.954;9.506;2023-04-15T03:26:57;100792.38;;;7.90;100.00
29315;BME280;16320;53.954;9.506;2023-04-15T03:30:01;100794.19;;;7.87;100.00
29315;BME280;16320;53.954;9.506;2023-04-15T03:33:06;100796.78;;;7.87;100.00
29315;BME280;16320;53.954;9.506;2023-04-15T03:36:11;100798.50;;;7.88;100.00
29315;BME280;16320;53.954;9.506;2023-04-15T03:39:15;100801.34;;;7.82;100.00
29315;BME280;16320;53.954;9.506;2023-04-15T03:42:20;100798.63;;;7.85;100.00
29315;BME280;16320;53.954;9.506;2023-04-15T03:45:25;100802.94;;;7.86;100.00
29315;BME280;16320;53.954;9.506;2023-04-15T03:48:29;100802.06;;;7.86;100.00
29315;BME280;16320;53.954;9.506;2023-04-15T03:51:34;100805.44;;;7.90;100.00
29315;BME280;16320;53.954;9.506;2023-04-15T03:54:39;100810.69;;;7.90;100.00
29315;BME280;16320;53.954;9.506;2023-04-15T03:57:43;100810.78;;;7.86;100.00
29315;BME280;16320;53.954;9.506;2023-04-15T04:00:47;100807.13;;;7.91;100.00
29315;BME280;16320;53.954;9.506;2023-04-15T04:03:52;100809.63;;;7.94;100.00
29315;BME280;16320;53.954;9.506;2023-04-15T04:06:56;100813.03;;;7.96;100.00
29315;BME280;16320;53.954;9.506;2023-04-15T04:10:01;100807.84;;;7.94;100.00
29315;BME280;16320;53.954;9.506;2023-04-15T04:13:06;100808.72;;;7.95;100.00
29315;BME280;16320;53.954;9.506;2023-04-15T04:16:11;100807.78;;;7.96;100.00
29315;BME280;16320;53.954;9.506;2023-04-15T04:19:15;100805.31;;;7.93;100.00
29315;BME280;16320;53.954;9.506;2023-04-15T04:22:23;100804.34;;;7.95;100.00
29315;BME280;16320;53.954;9.506;2023-04-15T04:25:27;100806.91;;;7.97;100.00
29315;BME280;16320;53.954;9.506;2023-04-15T04:28:32;100808.72;;;7.95;100.00
29315;BME280;16320;53.954;9.506;2023-04-15T04:31:38;100806.97;;;7.95;100.00
29315;BME280;16320;53.954;9.506;2023-04-15T04:34:42;100810.41;;;7.96;100.00
29315;BME280;16320;53.954;9.506;2023-04-15T04:37:46;100814.56;;;8.01;100.00
29315;BME280;16320;53.954;9.506;2023-04-15T04:40:51;100809.22;;;8.04;100.00
29315;BME280;16320;53.954;9.506;2023-04-15T04:43:55;100817.19;;;8.01;100.00
29315;BME280;16320;53.954;9.506;2023-04-15T04:46:59;100816.25;;;8.02;100.00
29315;BME280;16320;53.954;9.506;2023-04-15T04:50:05;100815.34;;;8.03;100.00
29315;BME280;16320;53.954;9.506;2023-04-15T04:53:09;100817.00;;;8.06;100.00
29315;BME280;16320;53.954;9.506;2023-04-15T04:56:14;100828.38;;;8.05;100.00
29315;BME280;16320;53.954;9.506;2023-04-15T04:59:18;100828.38;;;8.05;100.00
29315;BME280;16320;53.954;9.506;2023-04-15T05:02:22;100829.22;;;8.05;100.00
29315;BME280;16320;53.954;9.506;2023-04-15T05:05:30;100827.59;;;8.03;100.00
29315;BME280;16320;53.954;9.506;2023-04-15T05:08:34;100835.09;;;8.11;100.00
29315;BME280;16320;53.954;9.506;2023-04-15T05:11:40;100830.81;;;8.10;100.00
29315;BME280;16320;53.954;9.506;2023-04-15T05:14:45;100830.69;;;8.13;100.00
29315;BME280;16320;53.954;9.506;2023-04-15T05:17:50;100838.31;;;8.19;100.00
29315;BME280;16320;53.954;9.506;2023-04-15T05:20:54;100846.81;;;8.24;100.00
29315;BME280;16320;53.954;9.506;2023-04-15T05:23:58;100843.38;;;8.22;100.00
29315;BME280;16320;53.954;9.506;2023-04-15T05:27:03;100850.34;;;8.23;100.00
29315;BME280;16320;53.954;9.506;2023-04-15T05:30:08;100847.66;;;8.24;100.00
29315;BME280;16320;53.954;9.506;2023-04-15T05:33:15;100846.88;;;8.22;100.00
29315;BME280;16320;53.954;9.506;2023-04-15T05:36:19;100845.03;;;8.24;100.00
29315;BME280;16320;53.954;9.506;2023-04-15T05:39:24;100845.94;;;8.23;100.00
29315;BME280;16320;53.954;9.506;2023-04-15T05:42:29;100844.13;;;8.25;100.00
29315;BME280;16320;53.954;9.506;2023-04-15T05:45:33;100848.38;;;8.28;100.00
29315;BME280;16320;53.954;9.506;2023-04-15T05:48:38;100843.88;;;8.32;100.00
29315;BME280;16320;53.954;9.506;2023-04-15T05:51:42;100842.06;;;8.34;100.00
29315;BME280;16320;53.954;9.506;2023-04-15T05:54:46;100834.94;;;8.37;100.00
29315;BME280;16320;53.954;9.506;2023-04-15T05:57:50;100835.13;;;8.33;100.00
29315;BME280;16320;53.954;9.506;2023-04-15T06:00:55;100837.56;;;8.37;100.00
29315;BME280;16320;53.954;9.506;2023-04-15T06:04:00;100835.13;;;8.33;100.00
29315;BME280;16320;53.954;9.506;2023-04-15T06:07:05;100851.53;;;8.36;100.00
29315;BME280;16320;53.954;9.506;2023-04-15T06:10:10;100857.66;;;8.37;100.00
29315;BME280;16320;53.954;9.506;2023-04-15T06:13:14;100867.88;;;8.43;100.00
29315;BME280;16320;53.954;9.506;2023-04-15T06:16:20;100870.38;;;8.46;100.00
29315;BME280;16320;53.954;9.506;2023-04-15T06:19:25;100879.81;;;8.50;100.00
29315;BME280;16320;53.954;9.506;2023-04-15T06:22:30;100877.19;;;8.50;100.00
29315;BME280;16320;53.954;9.506;2023-04-15T06:25:34;100889.34;;;8.51;100.00
29315;BME280;16320;53.954;9.506;2023-04-15T06:28:39;100881.38;;;8.54;100.00
29315;BME280;16320;53.954;9.506;2023-04-15T06:31:43;100881.38;;;8.54;100.00
29315;BME280;16320;53.954;9.506;2023-04-15T06:34:48;100877.97;;;8.52;100.00
29315;BME280;16320;53.954;9.506;2023-04-15T06:37:52;100880.66;;;8.51;100.00
29315;BME280;16320;53.954;9.506;2023-04-15T06:40:56;100885.72;;;8.55;100.00
29315;BME280;16320;53.954;9.506;2023-04-15T06:44:01;100885.59;;;8.58;100.00
29315;BME280;16320;53.954;9.506;2023-04-15T06:47:05;100891.72;;;8.57;100.00
29315;BME280;16320;53.954;9.506;2023-04-15T06:50:09;100883.09;;;8.55;100.00
29315;BME280;16320;53.954;9.506;2023-04-15T06:53:14;100877.75;;;8.58;100.00
29315;BME280;16320;53.954;9.506;2023-04-15T06:56:19;100883.75;;;8.60;100.00
29315;BME280;16320;53.954;9.506;2023-04-15T06:59:23;100873.28;;;8.60;100.00
29315;BME280;16320;53.954;9.506;2023-04-15T07:02:28;100880.13;;;8.65;100.00
29315;BME280;16320;53.954;9.506;2023-04-15T07:05:32;100890.25;;;8.72;100.00
29315;BME280;16320;53.954;9.506;2023-04-15T07:08:37;100889.16;;;8.78;100.00
29315;BME280;16320;53.954;9.506;2023-04-15T07:11:42;100888.09;;;8.82;100.00
29315;BME280;16320;53.954;9.506;2023-04-15T07:14:46;100897.47;;;8.88;100.00
29315;BME280;16320;53.954;9.506;2023-04-15T07:17:51;100887.97;;;8.85;100.00
29315;BME280;16320;53.954;9.506;2023-04-15T07:20:55;100891.00;;;8.96;100.00
29315;BME280;16320;53.954;9.506;2023-04-15T07:23:59;100896.09;;;9.00;100.00
29315;BME280;16320;53.954;9.506;2023-04-15T07:27:04;100906.59;;;9.00;100.00
29315;BME280;16320;53.954;9.506;2023-04-15T07:30:10;100900.38;;;9.02;100.00
29315;BME280;16320;53.954;9.506;2023-04-15T07:33:14;100917.84;;;9.02;100.00
29315;BME280;16320;53.954;9.506;2023-04-15T07:36:18;100921.28;;;9.04;100.00
29315;BME280;16320;53.954;9.506;2023-04-15T07:39:23;100931.63;;;9.07;100.00
29315;BME280;16320;53.954;9.506;2023-04-15T07:42:28;100934.31;;;9.05;100.00
29315;BME280;16320;53.954;9.506;2023-04-15T07:45:32;100930.16;;;9.00;100.00
29315;BME280;16320;53.954;9.506;2023-04-15T07:48:36;100931.16;;;8.97;100.00
29315;BME280;16320;53.954;9.506;2023-04-15T07:51:41;100926.78;;;8.97;100.00
29315;BME280;16320;53.954;9.506;2023-04-15T07:54:45;100935.28;;;9.03;100.00
29315;BME280;16320;53.954;9.506;2023-04-15T07:57:49;100940.41;;;9.06;100.00
29315;BME280;16320;53.954;9.506;2023-04-15T08:00:54;100938.63;;;9.06;100.00
29315;BME280;16320;53.954;9.506;2023-04-15T08:03:59;100940.91;;;9.14;100.00
29315;BME280;16320;53.954;9.506;2023-04-15T08:07:03;100941.56;;;9.19;100.00
29315;BME280;16320;53.954;9.506;2023-04-15T08:10:09;100944.06;;;9.22;100.00
29315;BME280;16320;53.954;9.506;2023-04-15T08:13:14;100943.09;;;9.25;100.00
29315;BME280;16320;53.954;9.506;2023-04-15T08:19:25;100942.38;;;9.21;100.00
29315;BME280;16320;53.954;9.506;2023-04-15T08:22:30;100946.69;;;9.22;100.00
29315;BME280;16320;53.954;9.506;2023-04-15T08:25:34;100950.91;;;9.26;100.00
29315;BME280;16320;53.954;9.506;2023-04-15T08:28:41;100947.47;;;9.24;100.00
29315;BME280;16320;53.954;9.506;2023-04-15T08:31:45;100953.53;;;9.26;100.00
29315;BME280;16320;53.954;9.506;2023-04-15T08:34:53;100952.78;;;9.23;100.00
29315;BME280;16320;53.954;9.506;2023-04-15T08:37:57;100958.88;;;9.23;100.00
29315;BME280;16320;53.954;9.506;2023-04-15T08:41:21;100956.13;;;9.26;100.00
29315;BME280;16320;53.954;9.506;2023-04-15T08:44:31;100957.88;;;9.26;100.00
29315;BME280;16320;53.954;9.506;2023-04-15T08:47:37;100963.06;;;9.27;100.00
29315;BME280;16320;53.954;9.506;2023-04-15T08:50:46;100968.44;;;9.24;100.00
29315;BME280;16320;53.954;9.506;2023-04-15T08:53:51;100964.13;;;9.23;100.00
29315;BME280;16320;53.954;9.506;2023-04-15T08:56:57;100970.34;;;9.21;100.00
29315;BME280;16320;53.954;9.506;2023-04-15T09:00:02;100966.22;;;9.15;100.00
29315;BME280;16320;53.954;9.506;2023-04-15T09:03:09;100971.34;;;9.18;100.00
29315;BME280;16320;53.954;9.506;2023-04-15T09:06:16;100979.13;;;9.20;100.00
29315;BME280;16320;53.954;9.506;2023-04-15T09:09:21;100979.72;;;9.26;100.00
29315;BME280;16320;53.954;9.506;2023-04-15T09:12:25;100985.81;;;9.27;100.00
29315;BME280;16320;53.954;9.506;2023-04-15T09:15:31;100988.50;;;9.25;100.00
29315;BME280;16320;53.954;9.506;2023-04-15T09:18:37;100996.88;;;9.33;100.00
29315;BME280;16320;53.954;9.506;2023-04-15T09:21:41;100995.03;;;9.35;100.00
29315;BME280;16320;53.954;9.506;2023-04-15T09:24:50;101000.16;;;9.39;100.00
29315;BME280;16320;53.954;9.506;2023-04-15T09:27:59;101005.94;;;9.47;100.00
29315;BME280;16320;53.954;9.506;2023-04-15T09:31:04;101003.06;;;9.53;100.00
29315;BME280;16320;53.954;9.506;2023-04-15T09:34:09;101002.59;;;9.64;100.00
29315;BME280;16320;53.954;9.506;2023-04-15T09:37:13;101005.69;;;9.74;100.00
29315;BME280;16320;53.954;9.506;2023-04-15T09:40:38;101007.03;;;9.82;100.00
29315;BME280;16320;53.954;9.506;2023-04-15T09:43:42;101010.31;;;9.87;100.00
29315;BME280;16320;53.954;9.506;2023-04-15T09:46:46;101004.84;;;9.92;100.00
29315;BME280;16320;53.954;9.506;2023-04-15T09:49:58;101008.63;;;10.05;100.00
29315;BME280;16320;53.954;9.506;2023-04-15T09:53:03;101005.19;;;10.24;100.00
29315;BME280;16320;53.954;9.506;2023-04-15T09:56:07;101014.16;;;10.39;100.00
29315;BME280;16320;53.954;9.506;2023-04-15T09:59:13;101011.31;;;10.43;100.00
29315;BME280;16320;53.954;9.506;2023-04-15T10:02:18;101009.47;;;10.46;100.00
29315;BME280;16320;53.954;9.506;2023-04-15T10:05:26;101008.28;;;10.53;100.00
29315;BME280;16320;53.954;9.506;2023-04-15T10:08:34;101013.28;;;10.57;100.00
29315;BME280;16320;53.954;9.506;2023-04-15T10:11:39;101019.09;;;10.64;100.00
29315;BME280;16320;53.954;9.506;2023-04-15T10:14:46;101016.41;;;10.66;100.00
29315;BME280;16320;53.954;9.506;2023-04-15T10:17:52;101017.75;;;10.74;100.00
29315;BME280;16320;53.954;9.506;2023-04-15T10:21:00;101021.94;;;10.78;100.00
29315;BME280;16320;53.954;9.506;2023-04-15T10:24:05;101013.00;;;10.83;100.00
29315;BME280;16320;53.954;9.506;2023-04-15T10:27:10;101017.41;;;10.82;100.00
29315;BME280;16320;53.954;9.506;2023-04-15T10:30:15;101020.91;;;11.00;100.00
29315;BME280;16320;53.954;9.506;2023-04-15T10:33:22;101011.25;;;11.01;100.00
29315;BME280;16320;53.954;9.506;2023-04-15T10:36:27;101007.91;;;11.14;100.00
29315;BME280;16320;53.954;9.506;2023-04-15T10:39:38;101014.44;;;11.25;100.00
29315;BME280;16320;53.954;9.506;2023-04-15T10:42:43;101014.16;;;11.31;100.00
29315;BME280;16320;53.954;9.506;2023-04-15T10:45:47;101016.06;;;11.45;100.00
29315;BME280;16320;53.954;9.506;2023-04-15T10:48:52;101015.81;;;11.67;100.00
29315;BME280;16320;53.954;9.506;2023-04-15T10:51:58;101003.88;;;11.77;100.00
29315;BME280;16320;53.954;9.506;2023-04-15T10:55:23;100999.66;;;11.90;100.00
29315;BME280;16320;53.954;9.506;2023-04-15T10:58:41;100997.34;;;12.02;100.00
29315;BME280;16320;53.954;9.506;2023-04-15T11:01:54;100980.91;;;12.14;100.00
29315;BME280;16320;53.954;9.506;2023-04-15T11:04:59;100989.19;;;12.40;100.00
29315;BME280;16320;53.954;9.506;2023-04-15T11:08:05;100978.09;;;12.49;100.00
29315;BME280;16320;53.954;9.506;2023-04-15T11:11:10;100965.19;;;12.60;100.00
29315;BME280;16320;53.954;9.506;2023-04-15T11:14:15;100976.84;;;12.56;100.00
29315;BME280;16320;53.954;9.506;2023-04-15T11:17:27;100970.81;;;12.54;100.00
29315;BME280;16320;53.954;9.506;2023-04-15T11:20:39;100960.88;;;12.59;100.00
29315;BME280;16320;53.954;9.506;2023-04-15T11:23:44;100968.94;;;12.56;100.00
29315;BME280;16320;53.954;9.506;2023-04-15T11:27:01;100972.75;;;12.51;100.00
29315;BME280;16320;53.954;9.506;2023-04-15T11:30:25;100986.44;;;12.57;100.00
29315;BME280;16320;53.954;9.506;2023-04-15T11:33:30;100978.44;;;12.75;100.00
29315;BME280;16320;53.954;9.506;2023-04-15T11:36:35;100968.63;;;12.93;100.00
29315;BME280;16320;53.954;9.506;2023-04-15T11:39:41;100953.91;;;13.05;100.00
29315;BME280;16320;53.954;9.506;2023-04-15T11:46:14;100958.41;;;13.33;100.00
29315;BME280;16320;53.954;9.506;2023-04-15T11:49:29;100953.47;;;13.27;100.00
29315;BME280;16320;53.954;9.506;2023-04-15T11:52:34;100956.28;;;13.54;100.00
29315;BME280;16320;53.954;9.506;2023-04-15T11:55:43;100949.56;;;13.63;100.00
29315;BME280;16320;53.954;9.506;2023-04-15T11:58:52;100933.38;;;13.69;100.00
29315;BME280;16320;53.954;9.506;2023-04-15T12:01:57;100944.03;;;13.82;100.00
29315;BME280;16320;53.954;9.506;2023-04-15T12:05:04;100940.66;;;13.80;100.00
29315;BME280;16320;53.954;9.506;2023-04-15T12:08:08;100941.19;;;13.70;100.00
29315;BME280;16320;53.954;9.506;2023-04-15T12:11:13;100953.47;;;13.71;100.00
29315;BME280;16320;53.954;9.506;2023-04-15T12:17:28;100939.63;;;14.24;100.00
29315;BME280;16320;53.954;9.506;2023-04-15T12:20:52;100954.19;;;14.17;100.00
29315;BME280;16320;53.954;9.506;2023-04-15T12:24:02;100956.34;;;14.10;100.00
29315;BME280;16320;53.954;9.506;2023-04-15T12:27:10;100962.31;;;13.85;100.00
29315;BME280;16320;53.954;9.506;2023-04-15T12:30:15;100973.81;;;13.55;100.00
29315;BME280;16320;53.954;9.506;2023-04-15T12:33:19;100972.38;;;13.19;100.00
29315;BME280;16320;53.954;9.506;2023-04-15T12:36:23;100979.34;;;13.20;100.00
29315;BME280;16320;53.954;9.506;2023-04-15T12:39:31;100992.63;;;13.34;100.00
29315;BME280;16320;53.954;9.506;2023-04-15T12:42:38;101003.81;;;13.68;100.00
29315;BME280;16320;53.954;9.506;2023-04-15T12:45:42;101006.63;;;14.23;100.00
29315;BME280;16320;53.954;9.506;2023-04-15T12:48:47;100997.69;;;14.11;100.00
29315;BME280;16320;53.954;9.506;2023-04-15T12:52:01;100998.69;;;14.08;100.00
29315;BME280;16320;53.954;9.506;2023-04-15T12:55:06;100996.19;;;14.07;100.00
29315;BME280;16320;53.954;9.506;2023-04-15T12:58:10;100987.47;;;14.05;100.00
29315;BME280;16320;53.954;9.506;2023-04-15T13:01:15;100985.56;;;14.21;100.00
29315;BME280;16320;53.954;9.506;2023-04-15T13:04:19;100986.09;;;14.14;100.00
29315;BME280;16320;53.954;9.506;2023-04-15T13:07:24;100992.50;;;13.95;100.00
29315;BME280;16320;53.954;9.506;2023-04-15T13:10:29;101002.56;;;13.74;100.00
29315;BME280;16320;53.954;9.506;2023-04-15T13:13:34;101007.91;;;13.58;100.00
29315;BME280;16320;53.954;9.506;2023-04-15T13:16:39;101022.28;;;13.68;100.00
29315;BME280;16320;53.954;9.506;2023-04-15T13:19:44;101027.09;;;13.62;100.00
29315;BME280;16320;53.954;9.506;2023-04-15T13:22:48;101036.75;;;13.61;100.00
29315;BME280;16320;53.954;9.506;2023-04-15T13:25:53;101040.25;;;13.47;100.00
29315;BME280;16320;53.954;9.506;2023-04-15T13:28:57;101038.41;;;13.33;100.00
29315;BME280;16320;53.954;9.506;2023-04-15T13:32:02;101041.34;;;13.27;100.00
29315;BME280;16320;53.954;9.506;2023-04-15T13:35:07;101047.75;;;13.23;100.00
29315;BME280;16320;53.954;9.506;2023-04-15T13:38:11;101045.22;;;13.22;100.00
29315;BME280;16320;53.954;9.506;2023-04-15T13:41:16;101044.81;;;13.13;100.00
29315;BME280;16320;53.954;9.506;2023-04-15T13:44:20;101049.75;;;13.04;100.00
29315;BME280;16320;53.954;9.506;2023-04-15T13:47:25;101063.59;;;13.23;100.00
29315;BME280;16320;53.954;9.506;2023-04-15T13:50:29;101059.31;;;13.36;100.00
29315;BME280;16320;53.954;9.506;2023-04-15T13:53:34;101075.13;;;13.52;100.00
29315;BME280;16320;53.954;9.506;2023-04-15T13:56:42;101066.59;;;13.63;100.00
29315;BME280;16320;53.954;9.506;2023-04-15T13:59:47;101073.53;;;13.64;100.00
29315;BME280;16320;53.954;9.506;2023-04-15T14:02:51;101075.91;;;13.69;100.00
29315;BME280;16320;53.954;9.506;2023-04-15T14:05:56;101080.19;;;13.71;100.00
29315;BME280;16320;53.954;9.506;2023-04-15T14:09:06;101066.75;;;13.60;100.00
29315;BME280;16320;53.954;9.506;2023-04-15T14:12:11;101079.41;;;13.39;100.00
29315;BME280;16320;53.954;9.506;2023-04-15T14:15:15;101082.47;;;13.31;100.00
29315;BME280;16320;53.954;9.506;2023-04-15T14:18:19;101098.22;;;13.33;100.00
29315;BME280;16320;53.954;9.506;2023-04-15T14:21:24;101105.72;;;13.41;100.00
29315;BME280;16320;53.954;9.506;2023-04-15T14:24:30;101101.84;;;13.30;100.00
29315;BME280;16320;53.954;9.506;2023-04-15T14:27:35;101097.13;;;13.21;100.00
29315;BME280;16320;53.954;9.506;2023-04-15T14:30:39;101098.56;;;13.11;100.00
29315;BME280;16320;53.954;9.506;2023-04-15T14:33:44;101116.25;;;13.09;100.00
29315;BME280;16320;53.954;9.506;2023-04-15T14:36:50;101125.00;;;13.09;100.00
29315;BME280;16320;53.954;9.506;2023-04-15T14:39:56;101117.88;;;13.11;100.00
29315;BME280;16320;53.954;9.506;2023-04-15T14:43:01;101127.16;;;13.03;100.00
29315;BME280;16320;53.954;9.506;2023-04-15T14:46:06;101127.59;;;12.95;100.00
29315;BME280;16320;53.954;9.506;2023-04-15T14:49:12;101126.03;;;12.91;100.00
29315;BME280;16320;53.954;9.506;2023-04-15T14:52:16;101129.34;;;12.94;100.00
29315;BME280;16320;53.954;9.506;2023-04-15T14:55:20;101138.81;;;12.98;100.00
29315;BME280;16320;53.954;9.506;2023-04-15T14:58:24;101146.06;;;12.95;100.00
29315;BME280;16320;53.954;9.506;2023-04-15T15:01:29;101157.34;;;12.97;100.00
29315;BME280;16320;53.954;9.506;2023-04-15T15:04:34;101150.03;;;13.02;100.00
29315;BME280;16320;53.954;9.506;2023-04-15T15:07:39;101143.50;;;12.93;100.00
29315;BME280;16320;53.954;9.506;2023-04-15T15:10:44;101147.31;;;12.88;100.00
29315;BME280;16320;53.954;9.506;2023-04-15T15:13:52;101156.13;;;12.87;100.00
29315;BME280;16320;53.954;9.506;2023-04-15T15:16:57;101154.97;;;12.92;100.00
29315;BME280;16320;53.954;9.506;2023-04-15T15:20:01;101162.47;;;13.16;100.00
29315;BME280;16320;53.954;9.506;2023-04-15T15:23:06;101146.28;;;13.54;100.00
29315;BME280;16320;53.954;9.506;2023-04-15T15:26:11;101151.56;;;13.54;100.00
29315;BME280;16320;53.954;9.506;2023-04-15T15:29:16;101150.56;;;13.41;100.00
29315;BME280;16320;53.954;9.506;2023-04-15T15:32:20;101164.56;;;13.25;100.00
29315;BME280;16320;53.954;9.506;2023-04-15T15:35:24;101173.34;;;13.10;100.00
29315;BME280;16320;53.954;9.506;2023-04-15T15:38:29;101179.97;;;13.01;100.00
29315;BME280;16320;53.954;9.506;2023-04-15T15:41:33;101183.97;;;12.92;100.00
29315;BME280;16320;53.954;9.506;2023-04-15T15:44:38;101190.41;;;12.87;100.00
29315;BME280;16320;53.954;9.506;2023-04-15T15:47:42;101191.13;;;12.90;100.00
29315;BME280;16320;53.954;9.506;2023-04-15T15:50:47;101183.84;;;12.78;100.00
29315;BME280;16320;53.954;9.506;2023-04-15T15:53:51;101184.00;;;12.75;100.00
29315;BME280;16320;53.954;9.506;2023-04-15T15:56:56;101206.81;;;12.76;100.00
29315;BME280;16320;53.954;9.506;2023-04-15T16:00:02;101200.16;;;12.69;100.00
29315;BME280;16320;53.954;9.506;2023-04-15T16:03:10;101205.59;;;12.66;100.00
29315;BME280;16320;53.954;9.506;2023-04-15T16:06:14;101210.09;;;12.63;100.00
29315;BME280;16320;53.954;9.506;2023-04-15T16:09:19;101212.97;;;12.59;100.00
29315;BME280;16320;53.954;9.506;2023-04-15T16:12:24;101200.88;;;12.55;100.00